Time;durP1;ratioP1;P1;durP2;ratioP2;P2;SDS_P1;SDS_P2;PMS_P1;PMS_P2;Temp;Humidity;BMP_temperature;BMP_pressure;BME280_temperature;BME280_humidity;BME280_pressure;Samples;Min_cycle;Max_cycle;Signal;HPM_P1;HPM_P2
2024/01/19 00:00:46;;;;;;;32.67;16.27;;;1.00;99.90;;;;;;7286128;19;20205;-80
2024/01/19 00:03:12;;;;;;;32.77;16.13;;;1.00;99.90;;;;;;7285330;19;20193;-80
2024/01/19 00:05:38;;;;;;;33.83;16.20;;;0.90;99.90;;;;;;7284343;19;20189;-80
2024/01/19 00:08:04;;;;;;;28.17;15.00;;;0.90;99.90;;;;;;7307690;19;20260;-79
2024/01/19 00:10:33;;;;;;;36.27;16.87;;;0.90;99.90;;;;;;7285682;19;20200;-79
2024/01/19 00:12:59;;;;;;;30.13;16.33;;;0.80;99.90;;;;;;7282926;19;20653;-80
2024/01/19 00:15:24;;;;;;;31.67;16.13;;;0.80;99.90;;;;;;7284409;19;20909;-79
2024/01/19 00:17:50;;;;;;;31.07;15.50;;;0.80;99.90;;;;;;7286277;19;20218;-80
2024/01/19 00:20:16;;;;;;;29.70;15.10;;;0.70;99.90;;;;;;7285690;19;20207;-80
2024/01/19 00:22:42;;;;;;;28.90;15.07;;;0.70;99.90;;;;;;7282573;19;20664;-80
2024/01/19 00:25:07;;;;;;;30.40;15.70;;;0.70;99.90;;;;;;7285803;19;20212;-79
2024/01/19 00:27:33;;;;;;;31.93;15.07;;;0.80;99.90;;;;;;7307082;19;20197;-80
2024/01/19 00:29:59;;;;;;;30.00;14.23;;;0.70;99.90;;;;;;7286667;19;20200;-79
2024/01/19 00:32:25;;;;;;;27.63;14.17;;;0.70;99.90;;;;;;7285359;19;20198;-80
2024/01/19 00:34:51;;;;;;;29.33;14.80;;;0.70;99.90;;;;;;7285969;19;20208;-79
2024/01/19 00:37:16;;;;;;;29.43;13.70;;;0.70;99.90;;;;;;7285692;19;20192;-79
2024/01/19 00:39:42;;;;;;;27.63;14.27;;;0.60;99.90;;;;;;7283079;19;20189;-79
2024/01/19 00:42:08;;;;;;;29.97;14.07;;;0.60;99.90;;;;;;7284938;19;20185;-79
2024/01/19 00:44:33;;;;;;;28.47;14.53;;;0.60;99.90;;;;;;7304285;19;20192;-79
2024/01/19 00:46:59;;;;;;;29.53;14.83;;;0.70;99.90;;;;;;7285772;19;20341;-80
2024/01/19 00:49:25;;;;;;;28.47;14.57;;;0.70;99.90;;;;;;7285702;19;20696;-80
2024/01/19 00:51:51;;;;;;;32.80;14.93;;;0.60;99.90;;;;;;7284125;19;20200;-80
2024/01/19 00:54:17;;;;;;;30.53;15.53;;;0.50;99.90;;;;;;7284153;19;20217;-80
2024/01/19 00:56:43;;;;;;;30.80;16.10;;;0.40;99.90;;;;;;7284168;19;20188;-80
2024/01/19 00:59:08;;;;;;;29.23;15.07;;;0.20;99.90;;;;;;7284244;19;20188;-80
2024/01/19 01:01:34;;;;;;;31.93;16.37;;;0.10;99.90;;;;;;7305871;19;20298;-80
2024/01/19 01:04:02;;;;;;;30.33;15.73;;;0.10;99.90;;;;;;7285230;19;20186;-80
2024/01/19 01:06:28;;;;;;;35.87;16.77;;;0.10;99.90;;;;;;7283688;19;20188;-79
2024/01/19 01:08:54;;;;;;;31.93;15.73;;;0.10;99.90;;;;;;7284595;19;20676;-81
2024/01/19 01:11:20;;;;;;;32.67;16.30;;;0.10;99.90;;;;;;7283824;19;20195;-80
2024/01/19 01:13:47;;;;;;;30.90;15.23;;;0.10;99.90;;;;;;7284214;19;20576;-80
2024/01/19 01:16:13;;;;;;;32.80;15.20;;;0.10;99.90;;;;;;7283539;19;20195;-80
2024/01/19 01:18:39;;;;;;;30.60;15.33;;;0.20;99.90;;;;;;7284190;19;20241;-80
2024/01/19 01:21:06;;;;;;;30.40;14.70;;;0.20;99.90;;;;;;7299415;19;20217;-79
2024/01/19 01:23:32;;;;;;;32.30;14.43;;;0.20;99.90;;;;;;7313823;19;20264;-80
2024/01/19 01:25:57;;;;;;;34.03;14.90;;;0.20;99.90;;;;;;7310926;19;20188;-80
2024/01/19 01:28:23;;;;;;;29.73;14.17;;;0.00;99.90;;;;;;7304602;19;20205;-80
2024/01/19 01:30:49;;;;;;;32.03;15.47;;;0.00;99.90;;;;;;7293380;19;20248;-80
2024/01/19 01:33:15;;;;;;;30.83;14.47;;;0.00;99.90;;;;;;7286357;19;20579;-80
2024/01/19 01:35:40;;;;;;;29.47;14.10;;;0.10;99.90;;;;;;7289895;19;20184;-79
2024/01/19 01:38:06;;;;;;;30.83;14.47;;;-0.10;99.90;;;;;;7287001;19;20294;-79
2024/01/19 01:40:32;;;;;;;34.93;15.07;;;-0.20;99.90;;;;;;7304924;19;20189;-80
2024/01/19 01:43:00;;;;;;;30.30;14.37;;;-0.20;99.90;;;;;;7278176;19;20207;-80
2024/01/19 01:45:27;;;;;;;33.40;15.33;;;-0.20;99.90;;;;;;7283223;19;20182;-80
2024/01/19 01:47:53;;;;;;;36.40;14.73;;;-0.10;99.90;;;;;;7283677;19;21013;-80
2024/01/19 01:50:19;;;;;;;31.80;15.07;;;-0.10;99.90;;;;;;7282568;19;20177;-80
2024/01/19 01:52:47;;;;;;;31.97;15.40;;;0.00;99.90;;;;;;7291863;19;20189;-78
2024/01/19 01:55:13;;;;;;;29.73;14.47;;;-0.10;99.90;;;;;;7289934;19;20177;-79
2024/01/19 01:57:41;;;;;;;34.83;15.43;;;-0.10;99.90;;;;;;7284799;19;20204;-80
2024/01/19 02:00:09;;;;;;;31.70;15.43;;;-0.10;99.90;;;;;;7284878;19;20279;-79
2024/01/19 02:02:36;;;;;;;37.43;16.00;;;-0.10;99.90;;;;;;7307773;19;20211;-80
2024/01/19 02:05:02;;;;;;;36.63;15.73;;;0.00;99.90;;;;;;7289550;19;20184;-80
2024/01/19 02:07:28;;;;;;;36.73;16.77;;;0.00;99.90;;;;;;7290107;19;20177;-80
2024/01/19 02:09:54;;;;;;;37.73;17.23;;;-0.10;99.90;;;;;;7285064;19;20244;-79
2024/01/19 02:12:21;;;;;;;42.27;17.73;;;0.00;99.90;;;;;;7290210;19;20642;-80
2024/01/19 02:14:47;;;;;;;46.17;18.77;;;-0.10;99.90;;;;;;7289675;19;20189;-80
2024/01/19 02:17:13;;;;;;;51.73;19.67;;;0.00;99.90;;;;;;7288473;19;20268;-80
2024/01/19 02:19:39;;;;;;;46.13;19.90;;;0.00;99.90;;;;;;7288622;19;20552;-79
2024/01/19 02:22:05;;;;;;;45.93;19.83;;;-0.10;99.90;;;;;;7305621;19;20181;-79
2024/01/19 02:24:33;;;;;;;46.83;19.47;;;0.00;99.90;;;;;;7304158;19;20688;-81
2024/01/19 02:27:01;;;;;;;53.93;20.63;;;0.00;99.90;;;;;;7287929;19;20189;-80
2024/01/19 02:29:26;;;;;;;49.40;20.40;;;0.10;99.90;;;;;;7288450;19;20182;-80
2024/01/19 02:31:52;;;;;;;57.70;22.10;;;0.20;99.90;;;;;;7288252;19;20192;-80
2024/01/19 02:34:18;;;;;;;53.33;22.17;;;0.10;99.90;;;;;;7287562;19;20201;-79
2024/01/19 02:36:43;;;;;;;54.20;22.43;;;0.20;99.90;;;;;;7287518;19;20189;-79
2024/01/19 02:39:09;;;;;;;52.63;23.33;;;0.40;99.90;;;;;;7288797;19;20256;-78
2024/01/19 02:41:35;;;;;;;52.73;22.57;;;0.40;99.90;;;;;;7309761;19;20687;-79
2024/01/19 02:44:00;;;;;;;58.20;23.83;;;0.40;99.90;;;;;;7289288;19;20189;-79
2024/01/19 02:46:26;;;;;;;58.13;23.87;;;0.50;99.90;;;;;;7287057;19;20223;-80
2024/01/19 02:48:52;;;;;;;60.67;24.97;;;0.60;99.90;;;;;;7289092;19;20224;-80
2024/01/19 02:51:18;;;;;;;63.60;25.53;;;0.60;99.90;;;;;;7288628;19;20853;-79
2024/01/19 02:53:44;;;;;;;61.03;24.13;;;0.70;99.90;;;;;;7286720;19;20197;-79
2024/01/19 02:56:09;;;;;;;58.97;25.40;;;0.70;99.90;;;;;;7288539;19;20202;-79
2024/01/19 02:58:35;;;;;;;64.87;25.40;;;0.80;99.90;;;;;;7310150;19;20185;-79
2024/01/19 03:01:01;;;;;;;65.97;25.93;;;0.90;99.90;;;;;;7288300;19;20181;-79
2024/01/19 03:03:26;;;;;;;65.90;25.57;;;1.00;99.90;;;;;;7287273;19;20228;-80
2024/01/19 03:05:52;;;;;;;70.60;26.13;;;1.00;99.90;;;;;;7288579;19;20196;-79
2024/01/19 03:08:20;;;;;;;65.40;26.67;;;1.10;99.90;;;;;;7286390;19;20201;-79
2024/01/19 03:10:46;;;;;;;65.90;26.40;;;1.00;99.90;;;;;;7287010;19;20618;-79
2024/01/19 03:13:12;;;;;;;65.43;25.63;;;1.00;99.90;;;;;;7286345;19;20525;-79
2024/01/19 03:15:38;;;;;;;57.93;24.77;;;1.10;99.90;;;;;;7285547;19;20188;-79
2024/01/19 03:18:03;;;;;;;65.47;26.03;;;1.10;99.90;;;;;;7309796;19;20205;-79
2024/01/19 03:20:29;;;;;;;62.80;25.83;;;1.20;99.90;;;;;;7288007;19;20182;-79
2024/01/19 03:22:55;;;;;;;56.83;25.40;;;1.20;99.90;;;;;;7286761;19;20196;-80
2024/01/19 03:25:21;;;;;;;65.63;25.83;;;1.30;99.90;;;;;;7286501;19;20544;-80
2024/01/19 03:27:46;;;;;;;61.43;25.63;;;1.30;99.90;;;;;;7285938;19;20667;-80
2024/01/19 03:30:12;;;;;;;59.70;25.13;;;1.20;99.90;;;;;;7286969;19;20189;-80
2024/01/19 03:32:38;;;;;;;62.40;25.53;;;1.30;99.90;;;;;;7285589;19;20185;-79
2024/01/19 03:35:04;;;;;;;60.63;24.73;;;1.40;99.90;;;;;;7308665;19;20207;-80
2024/01/19 03:37:30;;;;;;;63.03;25.57;;;1.40;99.90;;;;;;7286541;19;20565;-80
2024/01/19 03:39:56;;;;;;;63.03;25.80;;;1.40;99.90;;;;;;7285562;19;20194;-80
2024/01/19 03:42:21;;;;;;;60.37;24.50;;;1.40;99.90;;;;;;7286214;19;20190;-80
2024/01/19 03:44:47;;;;;;;59.27;25.70;;;1.50;99.90;;;;;;7284736;19;20198;-79
2024/01/19 03:47:13;;;;;;;62.63;25.27;;;1.50;99.90;;;;;;7287023;19;20553;-78
2024/01/19 03:49:39;;;;;;;64.60;26.33;;;1.40;99.90;;;;;;7285554;19;20255;-78
2024/01/19 03:52:07;;;;;;;68.07;25.50;;;1.40;99.90;;;;;;7307297;19;20181;-80
2024/01/19 03:54:34;;;;;;;64.00;25.33;;;1.40;99.90;;;;;;7285958;19;20211;-80
2024/01/19 03:57:01;;;;;;;62.03;25.13;;;1.30;99.90;;;;;;7285558;19;20312;-79
2024/01/19 03:59:27;;;;;;;57.37;23.70;;;1.20;99.90;;;;;;7285889;19;20652;-79
2024/01/19 04:01:54;;;;;;;59.50;24.53;;;1.20;99.90;;;;;;7284310;19;20206;-79
2024/01/19 04:04:20;;;;;;;62.73;25.43;;;1.20;99.90;;;;;;7283219;19;20197;-79
2024/01/19 04:06:46;;;;;;;60.70;24.10;;;1.30;99.90;;;;;;7283491;19;20189;-79
2024/01/19 04:09:11;;;;;;;61.87;25.23;;;1.30;99.90;;;;;;7285970;19;20875;-79
2024/01/19 04:11:37;;;;;;;62.87;25.30;;;1.30;99.90;;;;;;7293623;19;20197;-78
2024/01/19 04:14:03;;;;;;;54.87;24.13;;;1.30;99.90;;;;;;7306418;19;20223;-80
2024/01/19 04:16:29;;;;;;;61.10;26.13;;;1.40;99.90;;;;;;7286163;19;20967;-80
2024/01/19 04:18:55;;;;;;;62.67;24.00;;;1.40;99.90;;;;;;7285012;19;20204;-81
2024/01/19 04:21:20;;;;;;;62.47;24.87;;;1.40;99.90;;;;;;7285098;19;20541;-79
2024/01/19 04:23:46;;;;;;;58.27;24.77;;;1.30;99.90;;;;;;7284321;19;20208;-80
2024/01/19 04:26:12;;;;;;;59.67;25.93;;;1.30;99.90;;;;;;7281747;19;20207;-79
2024/01/19 04:28:39;;;;;;;67.40;25.87;;;1.30;99.90;;;;;;7290424;19;20197;-79
2024/01/19 04:31:08;;;;;;;59.83;24.93;;;1.30;99.90;;;;;;7305539;19;20178;-81
2024/01/19 04:33:33;;;;;;;63.73;25.13;;;1.30;99.90;;;;;;7284226;19;20204;-80
2024/01/19 04:35:59;;;;;;;61.50;25.13;;;1.10;99.90;;;;;;7284130;19;20190;-80
2024/01/19 04:38:25;;;;;;;62.20;24.37;;;1.00;99.90;;;;;;7283097;19;20188;-79
2024/01/19 04:40:51;;;;;;;66.40;25.93;;;0.90;99.90;;;;;;7284880;19;20185;-80
2024/01/19 04:43:17;;;;;;;66.47;26.20;;;1.00;99.90;;;;;;7284902;19;20192;-80
2024/01/19 04:45:44;;;;;;;66.83;25.67;;;1.00;99.90;;;;;;7284247;19;20199;-79
2024/01/19 04:48:10;;;;;;;65.13;26.10;;;1.10;99.90;;;;;;7286618;19;20199;-80
2024/01/19 04:50:36;;;;;;;65.73;27.30;;;1.10;99.90;;;;;;7307034;19;20692;-80
2024/01/19 04:53:02;;;;;;;64.47;25.30;;;1.10;99.90;;;;;;7283849;19;20281;-80
2024/01/19 04:55:27;;;;;;;67.73;25.87;;;1.20;99.90;;;;;;7282337;19;20194;-79
2024/01/19 04:57:53;;;;;;;64.60;25.93;;;1.30;99.90;;;;;;7281909;19;20593;-80
2024/01/19 05:00:21;;;;;;;65.87;25.10;;;1.30;99.90;;;;;;7279373;19;20201;-80
2024/01/19 05:02:48;;;;;;;64.03;26.43;;;1.40;99.90;;;;;;7283337;19;20219;-79
2024/01/19 05:05:14;;;;;;;66.27;26.57;;;1.30;99.90;;;;;;7282611;19;20214;-80
2024/01/19 05:07:40;;;;;;;66.23;26.77;;;1.30;99.90;;;;;;7279626;19;20207;-79
2024/01/19 05:10:06;;;;;;;62.03;27.23;;;1.40;99.90;;;;;;7306674;19;20186;-80
2024/01/19 05:12:32;;;;;;;64.60;26.90;;;1.30;99.90;;;;;;7283808;19;20212;-80
2024/01/19 05:14:58;;;;;;;65.70;25.50;;;1.30;99.90;;;;;;7282635;19;20189;-79
2024/01/19 05:17:24;;;;;;;73.23;26.90;;;1.20;99.90;;;;;;7283703;19;20672;-79
2024/01/19 05:19:50;;;;;;;61.67;26.30;;;1.30;99.90;;;;;;7283423;19;20200;-79
2024/01/19 05:22:15;;;;;;;68.40;27.20;;;1.20;99.90;;;;;;7283497;19;20666;-79
2024/01/19 05:24:42;;;;;;;62.80;26.20;;;1.20;99.90;;;;;;7282492;19;20260;-79
2024/01/19 05:27:08;;;;;;;62.63;25.83;;;1.20;99.90;;;;;;7292780;19;20313;-80
2024/01/19 05:29:34;;;;;;;65.97;26.73;;;1.10;99.90;;;;;;7305717;19;20189;-80
2024/01/19 05:32:00;;;;;;;73.47;27.33;;;1.00;99.90;;;;;;7282941;19;20211;-80
2024/01/19 05:34:26;;;;;;;65.40;26.77;;;1.00;99.90;;;;;;7281106;19;20201;-79
2024/01/19 05:36:52;;;;;;;69.13;28.07;;;1.00;99.90;;;;;;7281243;19;20191;-80
2024/01/19 05:39:18;;;;;;;68.30;27.13;;;0.90;99.90;;;;;;7281663;19;20208;-80
2024/01/19 05:41:43;;;;;;;78.67;27.03;;;0.80;99.90;;;;;;7277760;19;20191;-80
2024/01/19 05:44:09;;;;;;;102.10;28.30;;;0.70;99.90;;;;;;7277102;19;20217;-79
2024/01/19 05:46:35;;;;;;;66.20;27.30;;;0.70;99.90;;;;;;7301797;19;20189;-79
2024/01/19 05:49:00;;;;;;;65.27;27.43;;;0.70;99.90;;;;;;7281154;19;20204;-80
2024/01/19 05:51:26;;;;;;;62.40;26.53;;;0.70;99.90;;;;;;7279855;19;20198;-80
2024/01/19 05:53:52;;;;;;;76.03;28.50;;;0.70;99.90;;;;;;7279934;19;20196;-79
2024/01/19 05:56:18;;;;;;;70.33;27.97;;;0.70;99.90;;;;;;7282284;19;20549;-80
2024/01/19 05:58:44;;;;;;;64.63;27.70;;;0.70;99.90;;;;;;7280381;19;20726;-80
2024/01/19 06:01:10;;;;;;;76.57;28.90;;;0.70;99.90;;;;;;7279161;19;20279;-79
2024/01/19 06:03:36;;;;;;;71.77;28.47;;;0.60;99.90;;;;;;7303437;19;20283;-80
2024/01/19 06:06:03;;;;;;;66.80;27.87;;;0.70;99.90;;;;;;7284530;19;20200;-79
2024/01/19 06:08:29;;;;;;;68.87;28.00;;;0.80;99.90;;;;;;7278301;19;20892;-81
2024/01/19 06:10:55;;;;;;;68.83;28.77;;;0.80;99.90;;;;;;7283836;19;20203;-83
2024/01/19 06:13:22;;;;;;;72.70;27.80;;;0.90;99.90;;;;;;7281483;19;20426;-81
2024/01/19 06:15:48;;;;;;;70.07;28.47;;;0.90;99.90;;;;;;7281792;19;20557;-80
2024/01/19 06:18:13;;;;;;;73.43;28.93;;;0.90;99.90;;;;;;7281754;19;20188;-80
2024/01/19 06:20:41;;;;;;;74.27;29.97;;;0.90;99.90;;;;;;7282360;19;20201;-79
2024/01/19 06:23:11;;;;;;;73.57;28.80;;;0.80;99.90;;;;;;7302718;19;20252;-78
2024/01/19 06:25:38;;;;;;;74.97;28.93;;;0.90;99.90;;;;;;7302086;19;20196;-80
2024/01/19 06:28:04;;;;;;;217.17;34.83;;;0.70;99.90;;;;;;7282096;19;20805;-80
2024/01/19 06:30:30;;;;;;;76.23;28.90;;;0.70;99.90;;;;;;7280369;19;20184;-80
2024/01/19 06:32:56;;;;;;;72.47;30.13;;;0.80;99.90;;;;;;7275794;19;20550;-81
2024/01/19 06:35:22;;;;;;;71.83;29.23;;;0.80;99.90;;;;;;7279962;19;20195;-79
2024/01/19 06:37:48;;;;;;;108.83;30.80;;;0.80;99.90;;;;;;7279650;19;20193;-80
2024/01/19 06:40:14;;;;;;;70.63;28.50;;;0.80;99.90;;;;;;7279557;19;20261;-80
2024/01/19 06:42:43;;;;;;;67.83;28.73;;;0.80;99.90;;;;;;7280089;19;20299;-79
2024/01/19 06:45:09;;;;;;;63.33;28.20;;;0.80;99.90;;;;;;7281744;19;20189;-79
2024/01/19 06:47:34;;;;;;;103.37;31.20;;;0.90;99.90;;;;;;7303115;19;20676;-80
2024/01/19 06:50:00;;;;;;;129.63;31.57;;;1.00;99.90;;;;;;7284331;19;20216;-80
2024/01/19 06:52:26;;;;;;;72.80;28.83;;;1.00;99.90;;;;;;7284834;19;20191;-80
2024/01/19 06:54:51;;;;;;;75.07;30.43;;;1.10;99.90;;;;;;7285433;19;20201;-78
2024/01/19 06:57:17;;;;;;;66.47;28.87;;;1.10;99.90;;;;;;7284226;19;20177;-78
2024/01/19 06:59:43;;;;;;;68.77;30.07;;;1.20;99.90;;;;;;7284945;19;20193;-79
2024/01/19 07:02:08;;;;;;;62.87;28.60;;;1.10;99.90;;;;;;7288740;19;20193;-78
2024/01/19 07:04:34;;;;;;;63.33;27.47;;;1.10;99.90;;;;;;7310001;19;20185;-78
2024/01/19 07:07:00;;;;;;;68.20;27.93;;;1.00;99.90;;;;;;7288267;19;20245;-78
2024/01/19 07:09:26;;;;;;;63.77;27.83;;;0.90;99.90;;;;;;7288595;19;20204;-78
2024/01/19 07:11:53;;;;;;;69.37;28.93;;;0.80;99.90;;;;;;7284282;19;20192;-78
2024/01/19 07:14:19;;;;;;;63.77;28.00;;;0.80;99.90;;;;;;7286494;19;20228;-78
2024/01/19 07:16:44;;;;;;;66.37;28.60;;;0.80;99.90;;;;;;7288516;19;20635;-78
2024/01/19 07:19:11;;;;;;;66.53;28.33;;;0.80;99.90;;;;;;7287648;19;20189;-78
2024/01/19 07:21:40;;;;;;;70.43;28.87;;;0.70;99.90;;;;;;7307838;19;20192;-78
2024/01/19 07:24:11;;;;;;;63.67;27.73;;;0.70;99.90;;;;;;7286127;19;20215;-78
2024/01/19 07:26:38;;;;;;;69.77;29.27;;;0.60;99.90;;;;;;7288760;19;20692;-78
2024/01/19 07:29:08;;;;;;;77.53;31.33;;;0.50;99.90;;;;;;7286754;19;20287;-78
2024/01/19 07:31:35;;;;;;;73.13;30.33;;;0.60;99.90;;;;;;7288283;19;20192;-78
2024/01/19 07:34:02;;;;;;;70.37;29.50;;;0.60;99.90;;;;;;7284603;19;20197;-78
2024/01/19 07:36:27;;;;;;;70.20;30.80;;;0.70;99.90;;;;;;7284997;19;20745;-78
2024/01/19 07:38:54;;;;;;;77.33;32.67;;;0.80;99.90;;;;;;7285344;19;20189;-77
2024/01/19 07:41:20;;;;;;;69.60;31.53;;;0.70;99.90;;;;;;7287338;19;20189;-78
2024/01/19 07:43:46;;;;;;;80.00;30.40;;;0.80;99.90;;;;;;7285860;19;20649;-78
2024/01/19 07:46:14;;;;;;;81.80;31.77;;;0.80;99.90;;;;;;7285787;19;20193;-77
2024/01/19 07:48:40;;;;;;;77.33;31.97;;;0.80;99.90;;;;;;7285742;19;20235;-78
2024/01/19 07:51:05;;;;;;;76.43;32.83;;;0.80;99.90;;;;;;7308131;19;20189;-79
2024/01/19 07:53:31;;;;;;;85.00;33.00;;;0.80;99.90;;;;;;7287395;19;20593;-78
2024/01/19 07:55:57;;;;;;;75.47;31.67;;;0.80;99.90;;;;;;7286410;19;20194;-77
2024/01/19 07:58:23;;;;;;;75.10;31.83;;;0.80;99.90;;;;;;7285548;19;20192;-77
2024/01/19 08:00:49;;;;;;;77.80;33.97;;;0.70;99.90;;;;;;7284835;19;20193;-77
2024/01/19 08:03:15;;;;;;;74.40;32.90;;;0.60;99.90;;;;;;7283848;19;20557;-77
2024/01/19 08:05:41;;;;;;;75.07;32.63;;;0.60;99.90;;;;;;7284005;19;20200;-78
2024/01/19 08:08:07;;;;;;;81.87;33.97;;;0.60;99.90;;;;;;7308187;19;20648;-77
2024/01/19 08:10:35;;;;;;;73.57;32.07;;;0.60;99.90;;;;;;7285124;19;20192;-77
2024/01/19 08:13:01;;;;;;;71.87;32.50;;;0.60;99.90;;;;;;7285587;19;20185;-78
2024/01/19 08:15:28;;;;;;;78.30;32.53;;;0.60;99.90;;;;;;7285253;19;23341;-78
2024/01/19 08:17:54;;;;;;;69.87;31.50;;;0.40;99.90;;;;;;7283928;19;20258;-78
2024/01/19 08:20:21;;;;;;;67.87;31.37;;;0.40;99.90;;;;;;7285401;19;20189;-77
2024/01/19 08:22:47;;;;;;;75.00;32.13;;;0.30;99.90;;;;;;7284329;19;20181;-77
2024/01/19 08:25:14;;;;;;;68.10;33.37;;;0.30;99.90;;;;;;7284073;19;20590;-76
2024/01/19 08:27:43;;;;;;;73.43;32.77;;;0.40;99.90;;;;;;7284668;19;21002;-77
2024/01/19 08:30:09;;;;;;;67.63;31.73;;;0.50;99.90;;;;;;7292431;19;20291;-76
2024/01/19 08:32:35;;;;;;;67.83;32.33;;;0.50;99.90;;;;;;7305739;19;20191;-77
2024/01/19 08:35:08;;;;;;;65.83;30.40;;;0.70;99.90;;;;;;7285391;19;20739;-77
2024/01/19 08:37:41;;;;;;;66.30;30.17;;;0.80;99.90;;;;;;7284768;19;20192;-78
2024/01/19 08:40:08;;;;;;;66.43;30.47;;;0.80;99.90;;;;;;7286442;19;20266;-79
2024/01/19 08:42:34;;;;;;;62.30;29.07;;;0.90;99.90;;;;;;7284235;19;20186;-78
2024/01/19 08:45:00;;;;;;;63.43;29.03;;;0.90;99.90;;;;;;7285010;19;20263;-78
2024/01/19 08:47:26;;;;;;;59.13;27.10;;;0.90;99.90;;;;;;7285228;19;20688;-78
2024/01/19 08:49:52;;;;;;;62.10;28.77;;;0.90;99.90;;;;;;7283958;19;20193;-78
2024/01/19 08:52:18;;;;;;;62.63;29.93;;;0.90;99.90;;;;;;7285002;19;20196;-78
2024/01/19 08:54:44;;;;;;;60.43;28.17;;;0.80;99.90;;;;;;7283874;19;20255;-78
2024/01/19 08:57:09;;;;;;;61.93;27.03;;;0.80;99.90;;;;;;7283981;19;20189;-77
2024/01/19 08:59:35;;;;;;;54.33;27.37;;;0.80;99.90;;;;;;7306424;19;20554;-78
2024/01/19 09:02:01;;;;;;;53.47;27.17;;;0.90;99.90;;;;;;7282989;19;20284;-77
2024/01/19 09:04:27;;;;;;;55.77;27.60;;;1.00;99.90;;;;;;7282986;19;20193;-77
2024/01/19 09:06:55;;;;;;;55.13;27.07;;;1.10;99.90;;;;;;7282494;19;20196;-77
2024/01/19 09:09:21;;;;;;;57.43;28.87;;;1.10;99.90;;;;;;7280908;19;20193;-77
2024/01/19 09:11:46;;;;;;;56.80;28.00;;;1.10;99.90;;;;;;7283427;19;20744;-77
2024/01/19 09:14:13;;;;;;;55.07;27.13;;;1.10;99.90;;;;;;7283552;19;20192;-77
2024/01/19 09:16:43;;;;;;;58.33;27.20;;;1.10;99.90;;;;;;7293850;19;20211;-77
2024/01/19 09:19:09;;;;;;;52.20;26.20;;;1.10;99.90;;;;;;7294515;19;20196;-77
2024/01/19 09:21:34;;;;;;;53.53;27.03;;;1.10;99.90;;;;;;7305110;19;20672;-77
2024/01/19 09:24:00;;;;;;;54.87;25.80;;;1.20;99.90;;;;;;7281826;19;20224;-77
2024/01/19 09:26:26;;;;;;;52.33;25.93;;;1.30;99.90;;;;;;7278256;19;20233;-77
2024/01/19 09:28:51;;;;;;;52.17;26.50;;;1.40;99.90;;;;;;7276598;19;20290;-77
2024/01/19 09:31:17;;;;;;;52.63;26.40;;;1.40;99.90;;;;;;7281236;19;20193;-77
2024/01/19 09:33:44;;;;;;;55.93;25.67;;;1.50;99.90;;;;;;7280139;19;20650;-78
2024/01/19 09:36:10;;;;;;;49.40;24.80;;;1.60;99.90;;;;;;7282318;19;20185;-78
2024/01/19 09:38:37;;;;;;;48.77;25.20;;;1.60;99.90;;;;;;7303507;19;20414;-79
2024/01/19 09:41:26;;;;;;;47.07;25.40;;;1.60;99.90;;;;;;7283335;19;20194;-78
2024/01/19 09:43:57;;;;;;;53.10;25.20;;;1.60;99.90;;;;;;7178975;19;2004623;-77
2024/01/19 09:46:28;;;;;;;49.03;25.03;;;1.60;99.90;;;;;;7283496;19;20197;-77
2024/01/19 09:49:08;;;;;;;47.80;24.90;;;1.60;99.90;;;;;;7282085;19;20222;-77
2024/01/19 09:51:54;;;;;;;46.43;23.93;;;1.60;99.90;;;;;;7282387;19;20741;-77
2024/01/19 09:54:34;;;;;;;47.20;23.23;;;1.60;99.90;;;;;;7180407;19;2004959;-77
2024/01/19 09:57:01;;;;;;;51.10;24.83;;;1.60;99.90;;;;;;7278657;19;20301;-79
2024/01/19 09:59:30;;;;;;;46.73;25.47;;;1.60;99.90;;;;;;7281346;19;20194;-78
2024/01/19 10:01:56;;;;;;;48.93;24.87;;;1.60;99.90;;;;;;7282847;19;20193;-78
2024/01/19 10:04:23;;;;;;;48.70;24.70;;;1.60;99.90;;;;;;7279009;19;20688;-78
2024/01/19 10:06:54;;;;;;;47.90;24.67;;;1.70;99.90;;;;;;7282016;19;20193;-78
2024/01/19 10:09:21;;;;;;;43.47;24.17;;;1.70;99.90;;;;;;7281008;19;20194;-77
2024/01/19 10:11:52;;;;;;;46.60;23.47;;;1.80;99.90;;;;;;7282196;19;20193;-77
2024/01/19 10:14:18;;;;;;;43.70;24.10;;;1.80;99.90;;;;;;7280563;19;20210;-78
2024/01/19 10:16:44;;;;;;;41.83;23.57;;;1.80;99.90;;;;;;7281536;19;20197;-77
2024/01/19 10:19:13;;;;;;;46.10;23.30;;;1.90;99.90;;;;;;7279945;19;20194;-78
2024/01/19 10:21:39;;;;;;;47.47;25.27;;;2.10;99.90;;;;;;7295288;19;20190;-77
2024/01/19 10:24:15;;;;;;;42.43;22.43;;;2.40;99.90;;;;;;7303891;19;20192;-78
2024/01/19 10:26:42;;;;;;;38.80;20.67;;;3.30;99.90;;;;;;7265071;19;20265;-78
2024/01/19 10:29:12;;;;;;;36.33;19.40;;;5.20;99.90;;;;;;7310633;19;20198;-77
2024/01/19 10:31:38;;;;;;;30.40;17.53;;;6.60;99.90;;;;;;7288168;19;20596;-78
2024/01/19 10:34:14;;;;;;;27.67;17.10;;;8.10;99.90;;;;;;7287051;19;20811;-78
2024/01/19 10:36:40;;;;;;;28.57;17.53;;;9.10;99.90;;;;;;7265558;19;20676;-78
2024/01/19 10:39:19;;;;;;;31.70;17.67;;;9.70;99.90;;;;;;7309151;19;20186;-78
2024/01/19 10:41:46;;;;;;;27.87;16.63;;;10.80;99.90;;;;;;7186333;19;2005016;-79
2024/01/19 10:44:14;;;;;;;26.87;16.30;;;11.40;99.90;;;;;;7285328;19;20179;-78
2024/01/19 10:46:40;;;;;;;29.23;16.33;;;12.10;99.90;;;;;;7286644;19;20210;-78
2024/01/19 10:49:08;;;;;;;28.57;16.70;;;12.30;99.90;;;;;;7308229;19;20194;-78
2024/01/19 10:51:46;;;;;;;30.17;16.33;;;12.40;99.90;;;;;;7287704;19;20195;-78
2024/01/19 10:54:17;;;;;;;26.87;15.57;;;13.00;99.90;;;;;;7265698;19;20682;-78
2024/01/19 10:56:46;;;;;;;25.60;16.40;;;13.30;99.90;;;;;;7285679;19;20220;-78
2024/01/19 10:59:15;;;;;;;28.30;16.37;;;14.10;99.90;;;;;;7287105;19;20223;-79
2024/01/19 11:01:42;;;;;;;26.53;16.50;;;14.90;99.90;;;;;;7287439;19;20636;-78
2024/01/19 11:04:09;;;;;;;27.27;16.93;;;15.40;99.90;;;;;;7309595;19;20211;-77
2024/01/19 11:06:39;;;;;;;25.60;16.43;;;15.30;99.90;;;;;;7288669;19;21156;-78
2024/01/19 11:09:06;;;;;;;25.67;17.27;;;15.00;99.90;;;;;;7287885;19;20193;-78
2024/01/19 11:11:56;;;;;;;26.73;16.80;;;14.90;99.90;;;;;;7282776;19;20182;-79
2024/01/19 11:14:26;;;;;;;24.00;16.47;;;15.30;99.90;;;;;;7182431;19;2004574;-79
2024/01/19 11:16:54;;;;;;;23.57;15.90;;;15.70;99.90;;;;;;7287614;19;20219;-78
2024/01/19 11:19:22;;;;;;;28.83;17.27;;;15.90;99.00;;;;;;7285934;19;20190;-78
2024/01/19 11:21:48;;;;;;;27.13;17.30;;;15.90;97.30;;;;;;7287358;19;20977;-79
2024/01/19 11:24:18;;;;;;;24.63;17.37;;;15.90;97.10;;;;;;7286596;19;20191;-80
2024/01/19 11:27:02;;;;;;;27.20;17.53;;;15.60;96.80;;;;;;7285079;19;20251;-78
2024/01/19 11:29:41;;;;;;;26.00;16.93;;;15.50;97.10;;;;;;7287239;19;20200;-79
2024/01/19 11:32:07;;;;;;;25.47;17.87;;;15.60;96.50;;;;;;7287264;19;20629;-79
2024/01/19 11:34:48;;;;;;;28.23;17.23;;;15.50;96.40;;;;;;7287460;19;20554;-79
2024/01/19 11:37:43;;;;;;;28.57;18.10;;;15.70;95.50;;;;;;7182428;19;2004684;-78
2024/01/19 11:40:25;;;;;;;25.97;16.87;;;15.70;95.20;;;;;;7271954;19;20200;-78
2024/01/19 11:42:51;;;;;;;29.13;17.57;;;15.70;95.50;;;;;;7287384;19;20589;-79
2024/01/19 11:45:28;;;;;;;26.83;17.90;;;16.10;95.10;;;;;;7286203;19;20188;-79
2024/01/19 11:47:57;;;;;;;26.40;17.13;;;16.40;93.70;;;;;;7286374;19;20196;-79
2024/01/19 11:50:42;;;;;;;23.07;16.80;;;15.70;93.90;;;;;;7285342;19;20198;-79
2024/01/19 11:53:08;;;;;;;27.43;17.23;;;14.30;94.70;;;;;;7284419;19;20675;-79
2024/01/19 11:55:34;;;;;;;25.63;16.83;;;14.60;96.50;;;;;;7287510;19;20981;-79
2024/01/19 11:58:25;;;;;;;32.00;19.50;;;14.60;96.10;;;;;;7284425;19;20193;-79
2024/01/19 12:00:58;;;;;;;28.17;19.00;;;13.80;96.60;;;;;;7182995;19;2004625;-78
2024/01/19 12:03:24;;;;;;;27.70;17.00;;;14.20;97.10;;;;;;7285122;19;20201;-80
2024/01/19 12:05:53;;;;;;;26.93;16.93;;;14.20;96.50;;;;;;7283990;19;20189;-79
2024/01/19 12:08:19;;;;;;;26.80;17.30;;;14.10;96.60;;;;;;7286100;19;20649;-79
2024/01/19 12:10:45;;;;;;;28.07;16.33;;;14.50;97.00;;;;;;7281891;19;20176;-79
2024/01/19 12:13:12;;;;;;;29.93;17.43;;;14.70;95.90;;;;;;7282593;19;20189;-78
2024/01/19 12:15:43;;;;;;;24.50;16.13;;;14.50;96.90;;;;;;7307885;19;20710;-79
2024/01/19 12:18:10;;;;;;;26.83;16.10;;;14.50;96.60;;;;;;7274110;19;20214;-78
2024/01/19 12:20:36;;;;;;;26.03;16.03;;;14.60;96.40;;;;;;7305810;19;20316;-79
2024/01/19 12:23:01;;;;;;;27.03;16.43;;;14.60;96.60;;;;;;7283208;19;20287;-78
2024/01/19 12:25:27;;;;;;;26.00;16.70;;;14.50;96.60;;;;;;7283647;19;20209;-78
2024/01/19 12:28:06;;;;;;;28.47;16.90;;;14.50;96.70;;;;;;7283856;19;20210;-82
2024/01/19 12:30:34;;;;;;;25.70;16.33;;;14.70;96.40;;;;;;7283243;19;20196;-78
2024/01/19 12:33:21;;;;;;;26.57;17.40;;;14.80;96.60;;;;;;7283563;19;20178;-78